createdAt,value
2018-04-16T00:00:06.499Z,5.10
2018-04-16T00:01:05.468Z,5.20
2018-04-16T00:03:01.433Z,4.80
2018-04-16T00:04:01.917Z,5.20
2018-04-16T00:06:00.857Z,5.60
2018-04-16T00:06:59.328Z,5.80
2018-04-16T00:08:55.808Z,4.90
2018-04-16T00:09:56.291Z,5.10
2018-04-16T00:11:54.284Z,5.30
2018-04-16T00:12:53.402Z,4.80
2018-04-16T00:14:49.380Z,5.70
2018-04-16T00:15:49.387Z,5.40
2018-04-16T00:17:46.248Z,5.30
2018-04-16T00:18:45.327Z,5.40
2018-04-16T00:20:41.773Z,5.60
2018-04-16T00:21:41.253Z,5.60
2018-04-16T00:23:38.700Z,5.20
2018-04-16T00:24:37.231Z,5.40
2018-04-16T00:26:33.663Z,5.00
2018-04-16T00:27:33.675Z,5.80
2018-04-16T00:29:29.629Z,5.30
2018-04-16T00:30:29.064Z,5.00
2018-04-16T00:32:26.543Z,5.10
2018-04-16T00:33:25.539Z,5.00
2018-04-16T00:35:20.969Z,5.30
2018-04-16T00:36:20.958Z,5.40
2018-04-16T00:38:17.911Z,5.10
2018-04-16T00:39:16.918Z,5.50
2018-04-16T00:41:13.387Z,5.50
2018-04-16T00:42:12.879Z,5.70
2018-04-16T00:44:08.866Z,5.50
2018-04-16T00:45:08.835Z,5.10
2018-04-16T00:47:05.788Z,5.60
2018-04-16T00:48:04.790Z,5.80
2018-04-16T00:50:02.244Z,5.40
2018-04-16T00:51:00.739Z,5.80
2018-04-16T00:52:57.690Z,5.70
2018-04-16T00:53:56.674Z,5.60
2018-04-16T00:55:53.130Z,6.00
2018-04-16T00:56:52.604Z,6.20
2018-04-16T00:58:51.061Z,6.20
2018-04-16T00:59:51.082Z,6.10
2018-04-16T01:01:46.497Z,5.90
2018-04-16T01:04:02.460Z,5.80
2018-04-16T01:05:02.503Z,5.70
2018-04-16T01:07:00.396Z,5.90
2018-04-16T01:08:00.400Z,5.50
2018-04-16T01:09:58.877Z,5.80
2018-04-16T01:10:58.857Z,5.80
2018-04-16T01:12:54.813Z,6.00
2018-04-16T01:13:54.279Z,5.60
2018-04-16T01:15:50.744Z,5.90
2018-04-16T01:16:50.750Z,6.10
2018-04-16T01:18:46.691Z,5.80
2018-04-16T01:19:47.685Z,6.40
2018-04-16T01:21:42.119Z,5.60
2018-04-16T01:22:42.611Z,5.90
2018-04-16T01:24:38.044Z,6.60
2018-04-16T01:25:38.557Z,6.10
2018-04-16T01:27:34.506Z,6.20
2018-04-16T01:28:33.984Z,6.10
2018-04-16T01:30:31.968Z,6.40
2018-04-16T01:31:32.453Z,6.40
2018-04-16T01:33:29.885Z,5.80
2018-04-16T01:34:30.407Z,6.10
2018-04-16T01:36:25.850Z,6.10
2018-04-16T01:37:25.839Z,6.70
2018-04-16T01:39:23.819Z,6.40
2018-04-16T01:40:23.752Z,6.80
2018-04-16T01:42:20.202Z,6.70
2018-04-16T01:43:20.209Z,6.60
2018-04-16T01:45:15.687Z,5.90
2018-04-16T01:46:15.635Z,6.50
2018-04-16T01:48:11.609Z,6.10
2018-04-16T01:49:12.079Z,6.30
2018-04-16T01:51:07.549Z,7.20
2018-04-16T01:52:07.524Z,6.20
2018-04-16T01:54:04.502Z,7.10
2018-04-16T01:55:03.490Z,6.60
2018-04-16T01:56:59.950Z,6.70
2018-04-16T01:57:59.419Z,6.60
2018-04-16T01:59:55.883Z,6.30
2018-04-16T02:00:55.893Z,6.00
2018-04-16T02:02:51.832Z,6.50
2018-04-16T02:03:51.312Z,6.50
2018-04-16T02:05:47.255Z,6.50
2018-04-16T02:06:47.758Z,6.70
2018-04-16T02:08:43.728Z,6.20
2018-04-16T02:09:43.707Z,6.60
2018-04-16T02:11:39.603Z,6.60
2018-04-16T02:12:39.619Z,6.60
2018-04-16T02:14:35.570Z,6.70
2018-04-16T02:15:35.046Z,6.60
2018-04-16T02:17:32.480Z,6.90
2018-04-16T02:18:31.486Z,6.80
2018-04-16T02:20:27.946Z,7.60
2018-04-16T02:21:27.938Z,7.00
2018-04-16T02:23:23.417Z,6.60
2018-04-16T02:24:24.411Z,6.60
2018-04-16T02:26:19.360Z,7.00
2018-04-16T02:27:18.819Z,6.90
2018-04-16T02:29:15.300Z,5.90
2018-04-16T02:30:15.284Z,6.40
2018-04-16T02:32:10.742Z,6.70
2018-04-16T02:33:10.711Z,6.80
2018-04-16T02:35:10.687Z,6.60
2018-04-16T02:36:08.798Z,7.00
2018-04-16T02:38:05.760Z,7.10
2018-04-16T02:39:05.256Z,6.60
2018-04-16T02:41:00.710Z,6.20
2018-04-16T02:42:01.220Z,6.80
2018-04-16T02:43:57.169Z,6.60
2018-04-16T02:44:56.635Z,6.70
2018-04-16T02:46:52.601Z,7.10
2018-04-16T02:47:52.576Z,6.80
2018-04-16T02:49:49.036Z,6.70
2018-04-16T02:50:49.027Z,6.40
2018-04-16T02:52:45.972Z,6.10
2018-04-16T02:53:44.472Z,6.50
2018-04-16T02:55:42.910Z,6.30
2018-04-16T02:56:40.448Z,5.80
2018-04-16T02:58:36.404Z,6.40
2018-04-16T02:59:36.898Z,5.80
2018-04-16T03:01:32.819Z,6.20
2018-04-16T03:02:32.309Z,6.70
2018-04-16T03:04:30.766Z,7.10
2018-04-16T03:05:30.757Z,7.50
2018-04-16T03:07:27.210Z,6.50
2018-04-16T03:08:26.218Z,6.80
2018-04-16T03:10:22.144Z,6.90
2018-04-16T03:11:22.148Z,7.80
2018-04-16T03:13:18.622Z,7.00
2018-04-16T03:14:18.632Z,6.90
2018-04-16T03:16:15.588Z,7.20
2018-04-16T03:17:14.555Z,6.80
2018-04-16T03:19:10.493Z,6.40
2018-04-16T03:20:10.492Z,7.60
2018-04-16T03:22:06.389Z,7.10
2018-04-16T03:23:06.389Z,6.90
2018-04-16T03:25:02.855Z,7.10
2018-04-16T03:26:02.344Z,7.50
2018-04-16T03:27:58.307Z,7.00
2018-04-16T03:28:57.767Z,7.30
2018-04-16T03:30:54.225Z,6.80
2018-04-16T03:31:53.708Z,7.00
2018-04-16T03:33:50.180Z,7.50
2018-04-16T03:34:49.673Z,7.20
2018-04-16T03:36:45.645Z,7.50
2018-04-16T03:37:45.593Z,6.90
2018-04-16T03:39:41.569Z,7.50
2018-04-16T03:40:43.051Z,7.10
2018-04-16T03:42:37.498Z,6.70
2018-04-16T03:43:37.498Z,6.90
2018-04-16T03:45:33.487Z,6.60
2018-04-16T03:46:34.939Z,6.40
2018-04-16T03:48:31.416Z,6.70
2018-04-16T03:49:32.404Z,6.40
2018-04-16T03:51:27.870Z,6.30
2018-04-16T03:52:27.338Z,6.40
2018-04-16T03:54:23.794Z,6.90
2018-04-16T03:55:23.275Z,6.30
2018-04-16T03:57:21.235Z,6.50
2018-04-16T03:58:19.267Z,6.70
2018-04-16T04:00:18.713Z,6.10
2018-04-16T04:01:17.384Z,6.00
2018-04-16T04:03:13.789Z,6.50
2018-04-16T04:04:13.272Z,6.60
2018-04-16T04:06:09.754Z,7.30
2018-04-16T04:07:10.729Z,6.90
2018-04-16T04:09:06.263Z,6.50
2018-04-16T04:10:05.130Z,6.10
2018-04-16T04:12:02.098Z,6.00
2018-04-16T04:13:01.606Z,6.40
2018-04-16T04:14:58.045Z,6.70
2018-04-16T04:15:58.535Z,6.30
2018-04-16T04:17:53.482Z,7.50
2018-04-16T04:18:53.504Z,7.30
2018-04-16T04:20:48.946Z,6.80
2018-04-16T04:21:48.929Z,6.60
2018-04-16T04:23:46.367Z,6.20
2018-04-16T04:24:44.885Z,6.40
2018-04-16T04:26:43.824Z,6.50
2018-04-16T04:27:43.331Z,7.20
2018-04-16T04:29:39.280Z,6.60
2018-04-16T04:30:39.278Z,7.00
2018-04-16T04:32:35.725Z,6.80
2018-04-16T04:33:34.698Z,7.70
2018-04-16T04:35:32.165Z,6.50
2018-04-16T04:36:31.633Z,6.50
2018-04-16T04:38:28.100Z,6.60
2018-04-16T04:39:29.093Z,6.30
2018-04-16T04:41:24.045Z,7.10
2018-04-16T04:42:23.509Z,6.90
2018-04-16T04:44:20.468Z,7.00
2018-04-16T04:45:19.474Z,7.00
2018-04-16T04:47:15.413Z,6.10
2018-04-16T04:49:31.357Z,6.00
2018-04-16T04:50:31.835Z,6.10
2018-04-16T04:52:27.291Z,6.70
2018-04-16T04:53:27.279Z,6.90
2018-04-16T04:55:23.737Z,7.70
2018-04-16T04:56:23.228Z,7.60
2018-04-16T04:58:19.692Z,7.10
2018-04-16T04:59:19.675Z,7.40
2018-04-16T05:01:17.629Z,7.30
2018-04-16T05:02:16.117Z,8.90
2018-04-16T05:04:12.117Z,6.60
2018-04-16T05:05:12.057Z,6.70
2018-04-16T05:07:08.039Z,7.30
2018-04-16T05:08:08.504Z,8.00
2018-04-16T05:10:05.443Z,7.40
2018-04-16T05:11:03.944Z,6.80
2018-04-16T05:12:59.918Z,6.90
2018-04-16T05:14:01.390Z,7.30
2018-04-16T05:15:56.321Z,6.50
2018-04-16T05:16:55.832Z,7.30
2018-04-16T05:18:51.808Z,7.10
2018-04-16T05:19:51.748Z,6.80
2018-04-16T05:21:48.191Z,8.50
2018-04-16T05:22:49.179Z,7.40
2018-04-16T05:24:44.151Z,7.50
2018-04-16T05:25:44.148Z,6.40
2018-04-16T05:27:40.096Z,7.40
2018-04-16T05:28:39.584Z,7.00
2018-04-16T05:30:35.572Z,7.20
2018-04-16T05:31:35.518Z,7.20
2018-04-16T05:33:31.494Z,7.00
2018-04-16T05:34:31.462Z,6.60
2018-04-16T05:36:28.418Z,8.50
2018-04-16T05:37:27.428Z,8.20
2018-04-16T05:39:23.382Z,7.20
2018-04-16T05:40:23.350Z,7.40
2018-04-16T05:42:19.319Z,7.90
2018-04-16T05:43:20.216Z,7.70
2018-04-16T05:45:16.238Z,8.10
2018-04-16T05:46:15.236Z,7.00
2018-04-16T05:48:14.187Z,7.50
2018-04-16T05:49:14.221Z,7.50
2018-04-16T05:51:11.315Z,7.00
2018-04-16T05:52:11.813Z,7.60
2018-04-16T05:54:07.222Z,8.40
2018-04-16T05:55:08.739Z,7.70
2018-04-16T05:57:03.225Z,7.50
2018-04-16T05:58:03.695Z,7.40
2018-04-16T05:59:59.112Z,7.50
2018-04-16T06:00:59.116Z,7.50
2018-04-16T06:02:55.090Z,7.50
2018-04-16T06:05:11.027Z,7.60
2018-04-16T06:06:11.032Z,7.20
2018-04-16T06:08:06.979Z,8.90
2018-04-16T06:09:06.985Z,7.60
2018-04-16T06:11:02.954Z,8.40
2018-04-16T06:12:02.948Z,8.10
2018-04-16T06:13:59.393Z,7.40
2018-04-16T06:14:59.407Z,8.30
2018-04-16T06:16:54.864Z,7.90
2018-04-16T06:17:54.828Z,7.40
2018-04-16T06:19:50.788Z,7.10
2018-04-16T06:20:51.279Z,7.50
2018-04-16T06:22:48.758Z,7.20
2018-04-16T06:23:49.268Z,6.90
2018-04-16T06:25:47.692Z,6.80
2018-04-16T06:26:47.186Z,7.00
2018-04-16T06:28:42.678Z,7.20
2018-04-16T06:29:44.147Z,7.70
2018-04-16T06:31:40.553Z,8.00
2018-04-16T06:32:40.538Z,8.00
2018-04-16T06:34:36.473Z,7.80
2018-04-16T06:35:37.003Z,8.00
2018-04-16T06:37:34.440Z,8.10
2018-04-16T06:38:34.444Z,8.10
2018-04-16T06:40:32.943Z,7.50
2018-04-16T06:41:33.403Z,8.10
2018-04-16T06:43:31.983Z,6.80
2018-04-16T06:44:31.486Z,7.70
2018-04-16T06:46:29.559Z,8.00
2018-04-16T06:47:28.565Z,6.90
2018-04-16T06:49:25.952Z,8.00
2018-04-16T06:50:24.504Z,6.50
2018-04-16T06:52:20.424Z,6.60
2018-04-16T06:53:20.436Z,6.70
2018-04-16T06:55:16.399Z,7.00
2018-04-16T06:56:16.440Z,7.30
2018-04-16T06:58:14.419Z,7.50
2018-04-16T06:59:14.373Z,7.00
2018-04-16T07:01:10.325Z,6.60
2018-04-16T07:02:11.810Z,6.60
2018-04-16T07:04:06.807Z,7.10
2018-04-16T07:05:06.755Z,7.60
2018-04-16T07:07:02.222Z,6.80
2018-04-16T07:08:03.143Z,7.30
2018-04-16T07:09:58.180Z,6.10
2018-04-16T07:10:58.672Z,6.70
2018-04-16T07:12:55.097Z,6.20
2018-04-16T07:13:55.107Z,5.90
2018-04-16T07:15:50.621Z,6.00
2018-04-16T07:16:50.568Z,6.10
2018-04-16T07:18:46.540Z,7.00
2018-04-16T07:19:45.973Z,7.50
2018-04-16T07:21:42.936Z,7.20
2018-04-16T07:22:41.911Z,6.50
2018-04-16T07:24:37.891Z,8.10
2018-04-16T07:25:37.887Z,7.30
2018-04-16T07:27:33.883Z,6.60
2018-04-16T07:28:34.357Z,6.40
2018-04-16T07:30:30.298Z,5.90
2018-04-16T07:31:29.797Z,6.00
2018-04-16T07:33:25.733Z,5.60
2018-04-16T07:34:26.255Z,6.30
2018-04-16T07:36:22.217Z,5.70
2018-04-16T07:37:21.715Z,5.90
2018-04-16T07:39:18.157Z,5.70
2018-04-16T07:40:18.152Z,5.70
2018-04-16T07:42:13.638Z,6.00
2018-04-16T07:43:14.601Z,6.10
2018-04-16T07:45:10.082Z,6.50
2018-04-16T07:46:09.549Z,6.50
2018-04-16T07:48:05.560Z,5.40
2018-04-16T07:49:05.660Z,6.20
2018-04-16T07:51:01.500Z,6.40
2018-04-16T07:52:01.988Z,5.80
2018-04-16T07:53:57.992Z,6.60
2018-04-16T07:54:57.428Z,5.80
2018-04-16T07:56:53.402Z,7.20
2018-04-16T07:57:53.390Z,6.50
2018-04-16T07:59:49.858Z,6.10
2018-04-16T08:00:49.319Z,5.80
2018-04-16T08:02:45.815Z,6.60
2018-04-16T08:03:45.273Z,6.10
2018-04-16T08:05:41.247Z,6.40
2018-04-16T08:06:41.252Z,6.70
2018-04-16T08:08:38.192Z,6.50
2018-04-16T08:09:37.713Z,6.00
2018-04-16T08:11:33.629Z,5.90
2018-04-16T08:12:33.647Z,6.20
2018-04-16T08:14:29.077Z,6.70
2018-04-16T08:15:30.575Z,5.90
2018-04-16T08:17:28.002Z,5.90
2018-04-16T08:18:27.036Z,5.80
2018-04-16T08:20:24.975Z,5.70
2018-04-16T08:21:25.975Z,6.50
2018-04-16T08:23:23.096Z,5.60
2018-04-16T08:24:23.091Z,6.30
2018-04-16T08:26:19.079Z,7.00
2018-04-16T08:27:19.036Z,6.10
2018-04-16T08:29:15.023Z,6.20
2018-04-16T08:30:14.954Z,6.50
2018-04-16T08:32:10.934Z,5.80
2018-04-16T08:33:11.970Z,5.40
2018-04-16T08:35:06.908Z,5.80
2018-04-16T08:36:06.873Z,5.30
2018-04-16T08:38:03.351Z,5.20
2018-04-16T08:39:03.342Z,6.00
2018-04-16T08:41:04.331Z,5.30
2018-04-16T08:42:03.524Z,5.10
2018-04-16T08:44:04.196Z,6.10
2018-04-16T08:45:02.775Z,6.60
2018-04-16T08:47:01.223Z,5.50
2018-04-16T08:47:59.352Z,5.90
2018-04-16T08:49:59.801Z,5.80
2018-04-16T08:50:59.788Z,6.00
2018-04-16T08:52:57.794Z,5.90
2018-04-16T08:53:57.774Z,6.20
2018-04-16T08:55:55.780Z,6.20
2018-04-16T08:56:55.737Z,6.50
2018-04-16T08:58:52.208Z,6.40
2018-04-16T08:59:53.188Z,6.80
2018-04-16T09:01:49.729Z,6.70
2018-04-16T09:02:49.746Z,6.60
2018-04-16T09:04:48.214Z,6.30
2018-04-16T09:05:47.677Z,6.90
2018-04-16T09:07:43.691Z,8.70
2018-04-16T09:08:44.138Z,7.00
2018-04-16T09:10:47.596Z,8.80
2018-04-16T09:13:08.062Z,6.60
2018-04-16T09:14:08.032Z,6.10
2018-04-16T09:16:06.534Z,6.30
2018-04-16T09:17:06.492Z,6.10
2018-04-16T09:19:03.454Z,5.90
2018-04-16T09:20:01.900Z,5.70
2018-04-16T09:21:57.979Z,6.70
2018-04-16T09:22:57.866Z,5.70
2018-04-16T09:24:53.828Z,6.10
2018-04-16T09:25:53.823Z,5.40
2018-04-16T09:27:49.773Z,5.80
2018-04-16T09:28:49.805Z,5.80
2018-04-16T09:30:45.741Z,5.30
2018-04-16T09:31:45.727Z,5.90
2018-04-16T09:33:43.796Z,5.60
2018-04-16T09:34:44.691Z,5.80
2018-04-16T09:36:41.818Z,5.60
2018-04-16T09:37:42.774Z,5.40
2018-04-16T09:39:38.795Z,4.90
2018-04-16T09:40:39.238Z,4.00
2018-04-16T09:42:34.705Z,4.70
2018-04-16T09:43:34.701Z,5.20
2018-04-16T09:45:37.171Z,5.10
2018-04-16T09:46:35.189Z,5.70
2018-04-16T09:48:34.121Z,5.30
2018-04-16T09:49:33.232Z,5.10
2018-04-16T09:51:29.191Z,4.70
2018-04-16T09:52:29.697Z,4.90
2018-04-16T09:54:25.661Z,5.40
2018-04-16T09:55:25.344Z,5.40
2018-04-16T09:57:24.305Z,6.30
2018-04-16T09:58:25.347Z,6.20
2018-04-16T10:00:20.405Z,5.60
2018-04-16T10:01:19.424Z,4.20
2018-04-16T10:03:16.823Z,5.70
2018-04-16T10:04:15.845Z,6.00
2018-04-16T10:06:11.792Z,6.50
2018-04-16T10:07:11.276Z,7.10
2018-04-16T10:09:07.751Z,7.00
2018-04-16T10:10:07.751Z,7.30
2018-04-16T10:12:03.149Z,8.60
2018-04-16T10:13:04.686Z,7.70
2018-04-16T10:14:59.132Z,7.80
2018-04-16T10:16:00.610Z,7.00
2018-04-16T10:17:55.657Z,6.60
2018-04-16T10:18:56.563Z,6.20
2018-04-16T10:20:52.024Z,6.80
2018-04-16T10:21:51.015Z,6.50
2018-04-16T10:23:47.002Z,7.40
2018-04-16T10:24:47.477Z,7.30
2018-04-16T10:26:42.961Z,7.10
2018-04-16T10:27:42.935Z,6.50
2018-04-16T10:29:39.404Z,6.30
2018-04-16T10:30:39.401Z,5.40
2018-04-16T10:32:34.848Z,5.00
2018-04-16T10:33:34.851Z,5.50
2018-04-16T10:35:30.801Z,4.90
2018-04-16T10:36:29.296Z,4.70
2018-04-16T10:38:25.763Z,5.50
2018-04-16T10:39:23.743Z,5.60
2018-04-16T10:41:28.215Z,5.00
2018-04-16T10:42:28.228Z,6.30
2018-04-16T10:44:23.702Z,4.70
2018-04-16T10:47:00.162Z,4.10
2018-04-16T10:49:16.627Z,4.20
2018-04-16T10:51:33.577Z,4.40
2018-04-16T10:53:48.580Z,4.80
2018-04-16T10:54:48.554Z,4.60
2018-04-16T10:57:00.003Z,4.60
2018-04-16T10:58:01.504Z,4.10
2018-04-16T11:01:13.517Z,4.60
2018-04-16T11:02:16.006Z,4.10
2018-04-16T11:04:11.095Z,4.20
2018-04-16T11:06:24.100Z,4.60
2018-04-16T11:07:25.082Z,4.30
2018-04-16T11:09:20.049Z,4.30
2018-04-16T11:10:20.635Z,4.20
2018-04-16T11:12:16.504Z,4.10
2018-04-16T11:13:16.020Z,4.10
2018-04-16T11:15:11.979Z,4.40
2018-04-16T11:16:13.468Z,4.30
2018-04-16T11:18:19.919Z,5.20
2018-04-16T11:20:35.889Z,5.20
2018-04-16T11:21:34.901Z,4.70
2018-04-16T11:23:30.841Z,4.60
2018-04-16T11:24:32.379Z,5.40
2018-04-16T11:26:40.308Z,4.20
2018-04-16T11:27:39.807Z,4.60
2018-04-16T11:30:42.309Z,4.70
2018-04-16T11:32:58.581Z,4.50
2018-04-16T11:35:36.064Z,4.60
2018-04-16T11:37:52.003Z,5.30
2018-04-16T11:38:52.497Z,5.10
2018-04-16T11:40:47.434Z,4.60
2018-04-16T11:41:46.432Z,5.30
2018-04-16T11:43:42.904Z,4.90
2018-04-16T11:45:59.876Z,5.10
2018-04-16T11:46:58.846Z,4.70
2018-04-16T11:48:54.806Z,5.00
2018-04-16T11:49:54.308Z,5.80
2018-04-16T11:51:54.782Z,5.30
2018-04-16T11:52:57.260Z,5.50
2018-04-16T11:54:56.226Z,5.30
2018-04-16T11:55:56.724Z,5.30
2018-04-16T11:57:52.179Z,5.30
2018-04-16T12:00:08.148Z,4.90
2018-04-16T12:01:07.642Z,5.00
2018-04-16T12:03:07.103Z,4.80
2018-04-16T12:04:05.586Z,4.80
2018-04-16T12:06:09.049Z,4.50
2018-04-16T12:07:07.042Z,4.20
2018-04-16T12:10:47.639Z,4.60
2018-04-16T12:11:38.114Z,4.30
2018-04-16T12:13:35.848Z,4.80
2018-04-16T12:14:37.336Z,4.10
2018-04-16T12:17:16.303Z,4.70
2018-04-16T12:18:14.327Z,4.90
2018-04-16T12:20:09.277Z,4.90
2018-04-16T12:21:09.794Z,4.80
2018-04-16T12:23:15.778Z,4.30
2018-04-16T12:25:34.701Z,4.20
2018-04-16T12:26:32.211Z,4.20
2018-04-16T12:28:29.667Z,3.60
2018-04-16T12:29:28.661Z,4.00
2018-04-16T12:32:51.719Z,4.10
2018-04-16T12:33:49.506Z,4.20
2018-04-16T12:35:45.462Z,3.70
2018-04-16T12:36:45.970Z,4.60
2018-04-16T12:38:43.958Z,3.60
2018-04-16T12:39:43.391Z,4.10
2018-04-16T12:41:39.884Z,4.50
2018-04-16T12:45:52.476Z,4.50
2018-04-16T12:46:52.957Z,4.50
2018-04-16T12:48:48.190Z,4.50
2018-04-16T12:49:48.682Z,4.90
2018-04-16T12:51:42.156Z,4.70
2018-04-16T12:53:57.621Z,4.70
2018-04-16T12:54:59.111Z,5.80
2018-04-16T12:58:30.220Z,4.90
2018-04-16T12:59:31.160Z,5.20
2018-04-16T13:01:25.409Z,5.20
2018-04-16T13:02:26.938Z,4.90
2018-04-16T13:04:21.381Z,5.30
2018-04-16T13:05:21.378Z,6.10
2018-04-16T13:07:17.368Z,5.00
2018-04-16T13:09:44.827Z,5.10
2018-04-16T13:12:02.320Z,4.70
2018-04-16T13:13:03.264Z,5.10
2018-04-16T13:14:58.263Z,4.40
2018-04-16T13:15:58.263Z,4.80
2018-04-16T13:17:54.720Z,4.50
2018-04-16T13:18:54.739Z,4.70
2018-04-16T13:20:50.708Z,4.60
2018-04-16T13:21:50.244Z,4.10
2018-04-16T13:23:46.248Z,4.30
2018-04-16T13:24:47.737Z,5.00
2018-04-16T13:26:42.674Z,4.20
2018-04-16T13:27:42.169Z,3.80
2018-04-16T13:29:38.095Z,4.30
2018-04-16T13:30:38.102Z,4.70
2018-04-16T13:32:35.063Z,4.10
2018-04-16T13:33:35.054Z,3.70
2018-04-16T13:35:30.057Z,3.90
2018-04-16T13:36:30.562Z,3.70
2018-04-16T13:38:26.512Z,3.60
2018-04-16T13:39:26.501Z,3.40
2018-04-16T13:41:24.456Z,3.40
2018-04-16T13:42:23.976Z,3.80
2018-04-16T13:44:21.391Z,4.30
2018-04-16T13:45:19.898Z,3.80
2018-04-16T13:47:16.861Z,3.70
2018-04-16T13:49:32.451Z,4.90
2018-04-16T13:50:31.934Z,4.50
2018-04-16T13:52:29.903Z,3.60
2018-04-16T13:53:29.905Z,3.80
2018-04-16T13:55:26.796Z,3.80
2018-04-16T13:56:25.718Z,4.20
2018-04-16T13:58:22.732Z,3.40
2018-04-16T13:59:22.689Z,3.00
2018-04-16T14:01:19.669Z,3.60
2018-04-16T14:04:19.634Z,3.40
2018-04-16T14:05:20.134Z,3.60
2018-04-16T14:07:15.129Z,3.60
2018-04-16T14:08:15.112Z,3.80
2018-04-16T14:10:11.584Z,3.90
2018-04-16T14:12:31.540Z,4.00
2018-04-16T14:13:31.578Z,3.30
2018-04-16T14:15:30.520Z,3.70
2018-04-16T14:16:29.637Z,3.40
2018-04-16T14:18:26.104Z,3.80
2018-04-16T14:19:27.116Z,4.00
2018-04-16T14:21:24.078Z,4.00
2018-04-16T14:23:38.065Z,3.60
2018-04-16T14:24:38.046Z,3.30
2018-04-16T14:26:34.014Z,3.70
2018-04-16T14:27:35.005Z,3.60
2018-04-16T14:29:29.423Z,3.10
2018-04-16T14:30:30.973Z,2.80
2018-04-16T14:32:29.913Z,3.20
2018-04-16T14:33:31.394Z,3.40
2018-04-16T14:35:25.860Z,3.20
2018-04-16T14:37:54.811Z,3.20
2018-04-16T14:38:51.810Z,3.30
2018-04-16T14:40:46.806Z,3.00
2018-04-16T14:41:47.332Z,3.30
2018-04-16T14:43:42.264Z,3.10
2018-04-16T14:44:43.290Z,2.90
2018-04-16T14:46:38.226Z,2.90
2018-04-16T14:47:39.217Z,3.20
2018-04-16T14:49:38.142Z,2.90
2018-04-16T14:50:39.692Z,2.80
2018-04-16T14:52:43.096Z,2.80
2018-04-16T14:53:44.096Z,3.10
2018-04-16T14:55:46.598Z,2.90
2018-04-16T14:56:48.665Z,3.10
2018-04-16T14:58:44.691Z,2.80
2018-04-16T14:59:46.570Z,2.60
2018-04-16T15:01:41.628Z,2.60
2018-04-16T15:02:41.129Z,2.60
2018-04-16T15:04:36.602Z,2.50
2018-04-16T15:05:36.608Z,2.30
2018-04-16T15:07:32.579Z,2.40
2018-04-16T15:08:32.542Z,2.60
2018-04-16T15:10:29.028Z,2.90
2018-04-16T15:12:47.478Z,2.30
2018-04-16T15:13:46.624Z,2.70
2018-04-16T15:15:43.083Z,2.20
2018-04-16T15:16:43.085Z,2.40
2018-04-16T15:18:39.529Z,2.70
2018-04-16T15:19:39.083Z,2.70
2018-04-16T15:21:34.436Z,3.10
2018-04-16T15:22:34.488Z,2.70
2018-04-16T15:24:32.444Z,2.60
2018-04-16T15:25:32.423Z,3.00
2018-04-16T15:27:28.374Z,2.60
2018-04-16T15:28:28.898Z,2.90
2018-04-16T15:30:24.332Z,2.70
2018-04-16T15:31:24.328Z,2.90
2018-04-16T15:33:20.818Z,3.10
2018-04-16T15:34:20.280Z,2.70
2018-04-16T15:36:16.757Z,3.20
2018-04-16T15:37:16.259Z,2.40
2018-04-16T15:39:12.732Z,2.70
2018-04-16T15:40:12.742Z,2.60
2018-04-16T15:42:08.168Z,2.80
2018-04-16T15:43:08.661Z,3.00
2018-04-16T15:45:04.123Z,2.80
2018-04-16T15:46:04.623Z,3.00
2018-04-16T15:48:25.137Z,2.80
2018-04-16T15:49:01.116Z,3.10
2018-04-16T15:50:59.028Z,2.90
2018-04-16T15:52:05.028Z,2.90
2018-04-16T15:53:54.010Z,2.90
2018-04-16T15:56:10.017Z,3.00
2018-04-16T15:57:11.502Z,3.00
2018-04-16T15:59:05.905Z,3.40
2018-04-16T16:00:07.441Z,3.10
2018-04-16T16:02:02.907Z,3.20
2018-04-16T16:03:01.895Z,3.00
2018-04-16T16:04:57.853Z,3.10
2018-04-16T16:05:57.835Z,3.00
2018-04-16T16:07:54.310Z,3.00
2018-04-16T16:08:53.807Z,3.20
2018-04-16T16:10:51.253Z,2.90
2018-04-16T16:11:51.254Z,3.10
2018-04-16T16:13:45.726Z,3.40
2018-04-16T16:16:01.686Z,3.30
2018-04-16T16:18:17.645Z,3.70
2018-04-16T16:19:17.647Z,3.30
2018-04-16T16:21:13.611Z,3.10
2018-04-16T16:22:13.586Z,4.10
2018-04-16T16:24:08.079Z,3.50
2018-04-16T16:25:08.030Z,3.60
2018-04-16T16:27:04.524Z,2.60
2018-04-16T16:28:04.018Z,2.80
2018-04-16T16:29:59.963Z,3.00
2018-04-16T16:31:01.508Z,3.20
2018-04-16T16:32:56.431Z,2.90
2018-04-16T16:33:56.420Z,3.20
2018-04-16T16:35:52.379Z,3.00
2018-04-16T16:36:53.374Z,2.60
2018-04-16T16:38:49.853Z,3.20
2018-04-16T16:39:49.812Z,3.10
2018-04-16T16:41:46.770Z,2.90
2018-04-16T16:42:45.761Z,3.60
2018-04-16T16:44:40.211Z,3.00
2018-04-16T16:45:40.733Z,3.20
2018-04-16T16:47:36.187Z,2.90
2018-04-16T16:48:36.176Z,2.80
2018-04-16T16:50:32.133Z,2.70
2018-04-16T16:51:32.127Z,2.60
2018-04-16T16:53:28.602Z,2.70
2018-04-16T16:54:28.090Z,2.70
2018-04-16T16:56:21.566Z,3.50
2018-04-16T16:57:21.554Z,3.50
2018-04-16T16:59:18.498Z,2.90
2018-04-16T17:00:17.496Z,3.20
2018-04-16T17:02:14.460Z,3.40
2018-04-16T17:03:14.463Z,3.30
2018-04-16T17:05:09.490Z,3.10
2018-04-16T17:06:09.946Z,2.50
2018-04-16T17:08:05.415Z,2.80
2018-04-16T17:09:05.920Z,3.00
2018-04-16T17:11:01.888Z,3.10
2018-04-16T17:12:01.855Z,2.80
2018-04-16T17:13:57.826Z,2.90
2018-04-16T17:14:57.818Z,2.90
2018-04-16T17:16:54.712Z,3.00
2018-04-16T17:20:32.292Z,3.30
2018-04-16T17:21:26.799Z,3.10
2018-04-16T17:23:21.085Z,3.40
2018-04-16T17:24:22.055Z,3.50
2018-04-16T17:26:19.035Z,3.00
2018-04-16T17:28:35.503Z,2.90
2018-04-16T17:29:33.535Z,2.70
2018-04-16T17:31:29.466Z,3.10
2018-04-16T17:32:30.397Z,2.90
2018-04-16T17:34:24.948Z,2.80
2018-04-16T17:35:24.916Z,2.70
2018-04-16T17:37:20.863Z,2.80
2018-04-16T17:38:20.877Z,2.90
2018-04-16T17:40:18.839Z,2.70
2018-04-16T17:42:33.313Z,3.20
2018-04-16T17:43:33.313Z,3.10
2018-04-16T17:45:29.769Z,2.80
2018-04-16T17:46:29.272Z,3.00
2018-04-16T17:48:24.768Z,3.10
2018-04-16T17:49:24.725Z,3.10
2018-04-16T17:51:21.615Z,2.90
2018-04-16T17:53:36.634Z,3.10
2018-04-16T17:54:36.638Z,2.70
2018-04-16T17:56:33.091Z,3.00
2018-04-16T17:57:32.607Z,3.40
2018-04-16T17:59:28.576Z,3.00
2018-04-16T18:00:28.659Z,3.00
2018-04-16T18:02:24.006Z,3.70
2018-04-16T18:03:22.980Z,2.90
2018-04-16T18:05:17.497Z,3.50
2018-04-16T18:06:18.949Z,3.30
2018-04-16T18:08:13.419Z,3.80
2018-04-16T18:09:13.420Z,3.50
2018-04-16T18:11:09.363Z,3.00
2018-04-16T18:12:09.358Z,3.10
2018-04-16T18:14:06.836Z,2.80
2018-04-16T18:15:05.334Z,3.00
2018-04-16T18:17:03.292Z,3.10
2018-04-16T18:18:01.302Z,3.20
2018-04-16T18:19:57.242Z,3.80
2018-04-16T18:20:57.765Z,3.30
2018-04-16T18:22:53.724Z,3.30
2018-04-16T18:23:53.255Z,3.40
2018-04-16T18:25:49.204Z,3.30
2018-04-16T18:26:49.712Z,2.90
2018-04-16T18:28:45.088Z,3.40
2018-04-16T18:29:45.648Z,3.20
2018-04-16T18:31:39.584Z,3.20
2018-04-16T18:32:39.554Z,3.00
2018-04-16T18:34:36.053Z,2.90
2018-04-16T18:35:35.518Z,3.10
2018-04-16T18:37:31.491Z,3.20
2018-04-16T18:38:32.006Z,3.30
2018-04-16T18:40:27.430Z,3.30
2018-04-16T18:41:28.464Z,3.30
2018-04-16T18:43:23.431Z,3.70
2018-04-16T18:44:24.912Z,3.20
2018-04-16T18:46:19.907Z,3.60
2018-04-16T18:47:19.357Z,3.40
2018-04-16T18:49:15.815Z,3.20
2018-04-16T18:50:15.265Z,3.20
2018-04-16T18:52:11.766Z,3.40
2018-04-16T18:53:11.235Z,3.40
2018-04-16T18:55:07.199Z,3.30
2018-04-16T18:56:07.190Z,3.30
2018-04-16T18:58:03.644Z,3.40
2018-04-16T18:59:03.646Z,3.50
2018-04-16T19:00:59.122Z,2.70
2018-04-16T19:02:00.101Z,2.70
2018-04-16T19:03:55.116Z,3.10
2018-04-16T19:04:56.016Z,3.40
2018-04-16T19:06:51.555Z,3.80
2018-04-16T19:07:51.049Z,4.20
2018-04-16T19:09:47.003Z,3.60
2018-04-16T19:10:47.009Z,3.70
2018-04-16T19:12:44.465Z,3.30
2018-04-16T19:13:42.944Z,3.20
2018-04-16T19:15:38.940Z,3.50
2018-04-16T19:16:38.903Z,3.90
2018-04-16T19:18:34.835Z,3.40
2018-04-16T19:19:34.817Z,3.40
2018-04-16T19:21:30.822Z,3.20
2018-04-16T19:22:31.279Z,3.80
2018-04-16T19:24:28.252Z,3.60
2018-04-16T19:25:27.768Z,3.40
2018-04-16T19:27:23.210Z,4.50
2018-04-16T19:28:23.199Z,4.30
2018-04-16T19:30:19.663Z,3.80
2018-04-16T19:31:18.668Z,4.20
2018-04-16T19:33:14.588Z,3.40
2018-04-16T19:34:14.607Z,3.50
2018-04-16T19:36:12.057Z,4.80
2018-04-16T19:37:10.547Z,3.80
2018-04-16T19:39:06.999Z,4.10
2018-04-16T19:40:06.477Z,4.00
2018-04-16T19:42:02.439Z,3.90
2018-04-16T19:43:03.451Z,4.30
2018-04-16T19:44:58.365Z,3.50
2018-04-16T19:45:58.382Z,3.70
2018-04-16T19:47:54.856Z,3.90
2018-04-16T19:48:54.435Z,3.70
2018-04-16T19:50:50.266Z,3.60
2018-04-16T19:51:51.774Z,3.80
2018-04-16T19:53:47.216Z,3.80
2018-04-16T19:54:46.246Z,3.90
2018-04-16T19:56:42.222Z,4.00
2018-04-16T19:57:42.679Z,3.70
2018-04-16T19:59:39.127Z,4.40
2018-04-16T20:00:38.628Z,3.80
2018-04-16T20:02:34.032Z,3.50
2018-04-16T20:03:34.042Z,4.00
2018-04-16T20:05:31.021Z,3.80
2018-04-16T20:06:30.004Z,3.60
2018-04-16T20:08:25.969Z,4.20
2018-04-16T20:09:25.948Z,3.80
2018-04-16T20:11:22.466Z,3.70
2018-04-16T20:12:22.410Z,4.10